createdAt,value
2018-11-27T00:00:41.766Z,12.40
2018-11-27T00:06:14.703Z,12.97
2018-11-27T00:14:48.466Z,13.47
2018-11-27T00:17:16.851Z,13.40
2018-11-27T00:19:45.389Z,13.53
2018-11-27T00:22:21.048Z,13.07
2018-11-27T00:27:53.574Z,12.80
2018-11-27T00:36:23.191Z,14.10
2018-11-27T00:38:52.718Z,13.30
2018-11-27T00:41:22.430Z,14.77
2018-11-27T00:43:52.273Z,13.50
2018-11-27T00:46:20.988Z,12.83
2018-11-27T00:48:51.532Z,13.23
2018-11-27T00:54:16.751Z,13.23
2018-11-27T00:56:46.729Z,13.43
2018-11-27T01:02:29.518Z,14.53
2018-11-27T01:04:59.705Z,13.80
2018-11-27T01:07:31.070Z,14.10
2018-11-27T01:10:01.746Z,14.27
2018-11-27T01:12:30.485Z,15.30
2018-11-27T01:14:59.622Z,13.20
2018-11-27T01:17:27.723Z,14.50
2018-11-27T01:22:39.251Z,15.20
2018-11-27T01:25:13.831Z,12.87
2018-11-27T01:30:44.859Z,12.03
2018-11-27T01:33:28.432Z,13.80
2018-11-27T01:36:04.630Z,13.90
2018-11-27T01:38:36.043Z,13.30
2018-11-27T01:41:05.238Z,13.07
2018-11-27T01:43:41.761Z,14.60
2018-11-27T01:46:10.325Z,13.63
2018-11-27T01:48:45.630Z,13.73
2018-11-27T01:51:14.145Z,13.27
2018-11-27T01:56:52.155Z,12.47
2018-11-27T02:02:04.406Z,13.20
2018-11-27T02:04:33.564Z,13.57
2018-11-27T02:07:09.794Z,14.30
2018-11-27T02:09:40.214Z,14.13
2018-11-27T02:12:09.379Z,13.83
2018-11-27T02:14:45.687Z,14.63
2018-11-27T02:17:15.767Z,14.80
2018-11-27T02:19:45.383Z,15.30
2018-11-27T02:22:14.073Z,14.70
2018-11-27T02:27:36.351Z,12.90
2018-11-27T02:33:08.489Z,14.40
2018-11-27T02:35:37.125Z,15.57
2018-11-27T02:38:07.037Z,14.40
2018-11-27T02:40:41.060Z,14.60
2018-11-27T02:43:31.321Z,14.27
2018-11-27T02:46:00.264Z,15.53
2018-11-27T02:48:29.478Z,14.63
2018-11-27T02:50:58.431Z,14.97
2018-11-27T02:53:28.905Z,14.40
2018-11-27T02:59:22.905Z,14.80
2018-11-27T03:01:51.744Z,16.03
2018-11-27T03:04:26.053Z,13.63
2018-11-27T03:07:10.036Z,14.97
2018-11-27T03:12:42.127Z,16.27
2018-11-27T03:15:12.762Z,14.33
2018-11-27T03:17:41.731Z,14.67
2018-11-27T03:20:12.075Z,16.53
2018-11-27T03:22:43.343Z,16.03
2018-11-27T03:28:24.223Z,15.10
2018-11-27T03:30:56.819Z,14.07
2018-11-27T03:33:25.342Z,14.27
2018-11-27T03:39:09.128Z,14.13
2018-11-27T03:41:39.312Z,16.63
2018-11-27T03:44:08.170Z,15.37
2018-11-27T03:46:37.472Z,15.60
2018-11-27T03:52:10.779Z,14.03
2018-11-27T03:54:39.197Z,15.93
2018-11-27T03:57:08.646Z,15.70
2018-11-27T03:59:38.340Z,16.00
2018-11-27T04:02:25.000Z,17.03
2018-11-27T04:04:53.945Z,15.17
2018-11-27T04:10:20.105Z,15.53
2018-11-27T04:15:48.874Z,16.20
2018-11-27T04:18:18.034Z,15.50
2018-11-27T04:20:47.184Z,15.77
2018-11-27T04:23:15.870Z,17.07
2018-11-27T04:26:03.995Z,15.50
2018-11-27T04:28:34.812Z,16.53
2018-11-27T04:34:24.027Z,16.17
2018-11-27T04:36:54.654Z,16.13
2018-11-27T04:39:23.083Z,16.60
2018-11-27T04:41:52.958Z,14.70
2018-11-27T04:44:23.990Z,14.73
2018-11-27T04:47:02.619Z,16.40
2018-11-27T04:49:32.286Z,15.00
2018-11-27T04:52:00.754Z,15.57
2018-11-27T04:54:31.384Z,13.93
2018-11-27T04:57:00.239Z,16.10
2018-11-27T04:59:28.987Z,15.63
2018-11-27T05:01:57.719Z,17.10
2018-11-27T05:04:26.417Z,17.30
2018-11-27T05:07:10.869Z,15.87
2018-11-27T05:12:53.982Z,15.60
2018-11-27T05:18:34.822Z,17.67
2018-11-27T05:21:22.784Z,16.43
2018-11-27T05:23:52.391Z,16.57
2018-11-27T05:29:21.425Z,16.53
2018-11-27T05:32:14.858Z,18.00
2018-11-27T05:43:46.816Z,17.40
2018-11-27T05:46:33.865Z,18.77
2018-11-27T05:49:04.187Z,17.47
2018-11-27T05:51:33.586Z,16.00
2018-11-27T05:54:10.370Z,17.87
2018-11-27T05:56:40.371Z,17.63
2018-11-27T05:59:16.431Z,16.87
2018-11-27T06:01:54.161Z,16.40
2018-11-27T06:04:38.770Z,17.17
2018-11-27T06:07:12.921Z,18.40
2018-11-27T06:10:01.131Z,17.80
2018-11-27T06:15:40.665Z,17.53
2018-11-27T06:20:46.647Z,17.17
2018-11-27T06:23:17.161Z,15.80
2018-11-27T06:25:46.669Z,18.03
2018-11-27T06:28:21.931Z,16.87
2018-11-27T06:31:06.991Z,17.37
2018-11-27T06:33:45.261Z,17.00
2018-11-27T06:36:38.015Z,16.80
2018-11-27T06:39:14.485Z,17.90
2018-11-27T06:54:12.383Z,15.10
2018-11-27T07:05:49.019Z,16.90
2018-11-27T07:08:19.061Z,17.80
2018-11-27T07:11:08.865Z,16.10
2018-11-27T07:13:37.280Z,16.23
2018-11-27T07:19:06.507Z,16.10
2018-11-27T07:24:39.450Z,16.87
2018-11-27T07:27:07.514Z,16.80
2018-11-27T07:29:36.796Z,15.83
2018-11-27T07:32:09.537Z,16.30
2018-11-27T07:34:36.401Z,16.57
2018-11-27T07:37:05.456Z,15.67
2018-11-27T07:39:33.878Z,14.07
2018-11-27T07:42:01.636Z,18.00
2018-11-27T07:44:29.988Z,14.47
2018-11-27T07:47:05.057Z,15.50
2018-11-27T07:52:26.952Z,14.80
2018-11-27T07:54:55.006Z,15.70
2018-11-27T07:57:27.730Z,15.43
2018-11-27T07:59:55.868Z,15.33
2018-11-27T08:02:24.748Z,15.50
2018-11-27T08:08:02.859Z,15.50
2018-11-27T08:19:40.316Z,17.10
2018-11-27T08:22:23.447Z,15.93
2018-11-27T08:27:43.938Z,14.73
2018-11-27T08:30:15.521Z,15.60
2018-11-27T08:35:52.137Z,15.83
2018-11-27T08:38:23.306Z,14.30
2018-11-27T08:40:52.724Z,16.50
2018-11-27T08:43:33.430Z,14.90
2018-11-27T08:46:04.987Z,13.40
2018-11-27T08:48:39.799Z,14.30
2018-11-27T08:51:07.965Z,16.30
2018-11-27T08:53:35.938Z,16.53
2018-11-27T08:56:22.011Z,15.30
2018-11-27T08:58:51.174Z,15.80
2018-11-27T09:04:22.061Z,16.17
2018-11-27T09:06:49.949Z,16.40
2018-11-27T09:09:32.412Z,14.70
2018-11-27T09:12:09.311Z,16.40
2018-11-27T09:17:47.603Z,16.87
2018-11-27T09:29:42.484Z,15.30
2018-11-27T09:32:18.726Z,15.60
2018-11-27T09:34:47.778Z,17.23
2018-11-27T09:37:36.467Z,16.40
2018-11-27T09:49:10.323Z,17.27
2018-11-27T09:51:46.093Z,16.40
2018-11-27T09:57:18.483Z,17.93
2018-11-27T10:02:54.883Z,16.37
2018-11-27T10:05:37.061Z,17.10
2018-11-27T10:17:39.105Z,18.47
2018-11-27T10:20:22.741Z,18.47
2018-11-27T10:22:51.440Z,18.37
2018-11-27T10:25:19.577Z,19.53
2018-11-27T10:27:55.064Z,18.50
2018-11-27T10:33:23.088Z,19.77
2018-11-27T10:48:01.151Z,19.00
2018-11-27T10:56:38.311Z,19.13
2018-11-27T10:59:18.781Z,18.67
2018-11-27T11:01:56.515Z,18.00
2018-11-27T11:07:27.523Z,18.20
2018-11-27T11:16:14.053Z,18.40
2018-11-27T11:18:42.787Z,19.10
2018-11-27T11:21:13.034Z,19.20
2018-11-27T11:26:44.053Z,20.30
2018-11-27T11:29:18.019Z,21.13
2018-11-27T11:34:56.528Z,21.03
2018-11-27T11:37:26.979Z,21.53
2018-11-27T11:45:37.032Z,22.13
2018-11-27T11:48:06.998Z,19.27
2018-11-27T11:50:53.310Z,19.33
2018-11-27T11:53:21.065Z,19.13
2018-11-27T11:55:49.961Z,19.83
2018-11-27T11:58:19.182Z,20.83
2018-11-27T12:06:55.203Z,21.57
2018-11-27T12:21:15.733Z,22.10
2018-11-27T12:29:20.166Z,19.97
2018-11-27T12:31:55.919Z,22.40
2018-11-27T12:34:42.184Z,20.70
2018-11-27T12:40:22.680Z,23.10
2018-11-27T12:46:11.396Z,23.30
2018-11-27T12:49:01.966Z,21.97
2018-11-27T12:51:48.603Z,23.27
2018-11-27T12:54:19.457Z,23.27
2018-11-27T12:57:04.143Z,22.97
2018-11-27T12:59:37.754Z,21.80
2018-11-27T13:02:06.044Z,22.50
2018-11-27T13:04:33.984Z,25.30
2018-11-27T13:07:03.643Z,24.30
2018-11-27T13:09:32.356Z,23.83
2018-11-27T13:12:17.183Z,24.80
2018-11-27T13:17:49.406Z,21.53
2018-11-27T13:20:19.309Z,35.27
2018-11-27T13:22:48.078Z,22.20
2018-11-27T13:25:29.154Z,24.13
2018-11-27T13:27:59.197Z,23.00
2018-11-27T13:30:41.702Z,21.97
2018-11-27T13:33:13.543Z,23.30
2018-11-27T13:35:42.020Z,24.47
2018-11-27T13:38:19.833Z,22.90
2018-11-27T13:40:48.365Z,22.60
2018-11-27T13:43:26.494Z,21.17
2018-11-27T13:57:25.277Z,21.73
2018-11-27T14:02:53.890Z,20.80
2018-11-27T14:05:30.079Z,23.87
2018-11-27T14:07:58.044Z,24.20
2018-11-27T14:10:25.898Z,22.57
2018-11-27T14:12:54.195Z,24.20
2018-11-27T14:15:24.448Z,23.73
2018-11-27T14:18:03.143Z,22.77
2018-11-27T14:20:31.091Z,21.10
2018-11-27T14:22:58.850Z,22.97
2018-11-27T14:25:45.835Z,23.97
2018-11-27T14:28:14.083Z,23.20
2018-11-27T14:33:45.351Z,21.80
2018-11-27T14:36:13.178Z,21.77
2018-11-27T14:38:45.397Z,22.80
2018-11-27T14:41:25.610Z,22.03
2018-11-27T14:43:57.723Z,22.77
2018-11-27T14:46:26.244Z,23.97
2018-11-27T14:48:58.615Z,23.63
2018-11-27T14:51:26.662Z,24.53
2018-11-27T14:53:54.660Z,24.93
2018-11-27T14:56:25.022Z,23.53
2018-11-27T14:58:56.228Z,24.50
2018-11-27T15:01:28.817Z,22.10
2018-11-27T15:07:00.080Z,22.97
2018-11-27T15:09:28.268Z,24.33
2018-11-27T15:12:03.352Z,21.80
2018-11-27T15:17:57.813Z,22.80
2018-11-27T15:20:26.793Z,21.87
2018-11-27T15:22:54.613Z,22.27
2018-11-27T15:25:22.845Z,23.00
2018-11-27T15:27:51.902Z,24.73
2018-11-27T15:30:28.292Z,21.80
2018-11-27T15:33:02.643Z,22.90
2018-11-27T15:35:30.502Z,21.87
2018-11-27T15:38:16.174Z,22.40
2018-11-27T15:40:54.815Z,21.70
2018-11-27T15:43:24.361Z,23.90
2018-11-27T15:45:54.022Z,21.53
2018-11-27T15:48:22.619Z,22.33
2018-11-27T15:50:50.716Z,21.27
2018-11-27T15:53:21.055Z,20.70
2018-11-27T15:56:09.242Z,21.17
2018-11-27T15:58:40.070Z,20.70
2018-11-27T16:01:08.526Z,20.37
2018-11-27T16:03:36.689Z,21.50
2018-11-27T16:06:05.316Z,20.60
2018-11-27T16:08:34.910Z,20.83
2018-11-27T16:11:03.596Z,19.87
2018-11-27T16:13:33.677Z,20.70
2018-11-27T16:16:05.914Z,21.63
2018-11-27T16:18:35.092Z,20.80
2018-11-27T16:21:05.960Z,21.63
2018-11-27T16:23:34.399Z,20.10
2018-11-27T16:26:02.627Z,24.90
2018-11-27T16:28:37.455Z,23.53
2018-11-27T16:31:07.120Z,25.47
2018-11-27T16:33:45.285Z,33.73
2018-11-27T16:36:14.442Z,30.80
2018-11-27T16:38:42.608Z,24.87
2018-11-27T16:41:10.789Z,20.10
2018-11-27T16:46:40.420Z,21.33
2018-11-27T16:49:08.389Z,22.97
2018-11-27T16:51:38.795Z,22.20
2018-11-27T16:54:07.214Z,20.77
2018-11-27T16:59:44.749Z,20.33
2018-11-27T17:02:12.643Z,21.07
2018-11-27T17:04:55.129Z,20.33
2018-11-27T17:07:33.233Z,20.03
2018-11-27T17:10:00.931Z,20.23
2018-11-27T17:15:23.271Z,20.20
2018-11-27T17:17:51.024Z,21.33
2018-11-27T17:20:35.457Z,20.73
2018-11-27T17:23:05.235Z,20.60
2018-11-27T17:25:35.313Z,21.50
2018-11-27T17:28:06.753Z,19.17
2018-11-27T17:30:43.593Z,20.20
2018-11-27T17:33:34.145Z,20.20
2018-11-27T17:41:56.872Z,21.47
2018-11-27T17:44:25.978Z,19.77
2018-11-27T17:46:54.351Z,20.73
2018-11-27T17:49:38.436Z,20.80
2018-11-27T17:52:06.484Z,20.13
2018-11-27T17:54:40.912Z,19.87
2018-11-27T18:00:25.111Z,20.63
2018-11-27T18:02:55.271Z,19.70
2018-11-27T18:05:23.857Z,18.87
2018-11-27T18:10:35.798Z,19.73
2018-11-27T18:13:06.466Z,24.67
2018-11-27T18:15:36.819Z,33.27
2018-11-27T18:18:28.035Z,26.83
2018-11-27T18:20:55.971Z,21.40
2018-11-27T18:26:36.743Z,20.23
2018-11-27T18:29:05.380Z,19.43
2018-11-27T18:31:33.421Z,20.33
2018-11-27T18:34:01.595Z,19.47
2018-11-27T18:39:33.287Z,20.30
2018-11-27T18:42:03.062Z,19.10
2018-11-27T18:44:31.082Z,21.63
2018-11-27T18:46:59.397Z,20.40
2018-11-27T18:49:27.678Z,20.23
2018-11-27T18:52:17.359Z,18.10
2018-11-27T19:09:46.753Z,18.60
2018-11-27T19:27:23.190Z,19.80
2018-11-27T19:35:30.331Z,20.33
2018-11-27T19:41:11.334Z,19.53
2018-11-27T19:43:45.741Z,19.87
2018-11-27T19:49:29.077Z,23.90
2018-11-27T19:51:58.284Z,20.20
2018-11-27T20:00:40.463Z,21.47
2018-11-27T20:09:16.235Z,28.80
2018-11-27T20:14:42.876Z,20.53
2018-11-27T20:31:32.766Z,19.43
2018-11-27T20:37:23.682Z,21.50
2018-11-27T20:46:19.388Z,20.67
2018-11-27T20:48:57.665Z,20.50
2018-11-27T20:51:27.584Z,20.80
2018-11-27T20:54:18.564Z,20.70
2018-11-27T20:59:51.388Z,23.87
2018-11-27T21:08:38.461Z,19.37
2018-11-27T21:18:27.958Z,31.77
2018-11-27T21:27:08.101Z,30.57
2018-11-27T21:29:58.970Z,30.70
2018-11-27T21:32:27.967Z,28.03
2018-11-27T21:35:02.963Z,23.33
2018-11-27T21:37:31.895Z,22.23
2018-11-27T21:40:08.949Z,22.27
2018-11-27T21:45:34.012Z,21.37
2018-11-27T21:48:02.825Z,21.47
2018-11-27T21:59:34.077Z,21.33
2018-11-27T22:02:15.650Z,21.80
2018-11-27T22:07:35.914Z,21.70
2018-11-27T22:10:10.554Z,21.93
2018-11-27T22:27:43.399Z,20.10
2018-11-27T22:39:29.630Z,21.90
2018-11-27T22:42:01.427Z,22.13
2018-11-27T22:53:40.740Z,22.80
2018-11-27T22:56:29.957Z,20.27
2018-11-27T23:02:18.672Z,19.80
2018-11-27T23:04:47.534Z,20.50
2018-11-27T23:07:23.209Z,20.40
2018-11-27T23:12:54.382Z,20.97
2018-11-27T23:27:35.712Z,21.40
